createdAt,value
2018-06-25T00:02:00.194Z,13.08
2018-06-25T00:04:29.845Z,13.11
2018-06-25T00:06:59.474Z,13.11
2018-06-25T00:09:29.047Z,13.09
2018-06-25T00:11:58.698Z,13.25
2018-06-25T00:14:28.267Z,13.18
2018-06-25T00:16:57.948Z,13.20
2018-06-25T00:19:27.528Z,13.23
2018-06-25T00:21:57.247Z,13.18
2018-06-25T00:24:26.806Z,13.20
2018-06-25T00:26:56.473Z,13.31
2018-06-25T00:29:25.781Z,13.23
2018-06-25T00:31:55.347Z,13.23
2018-06-25T00:34:24.972Z,13.18
2018-06-25T00:36:54.547Z,13.14
2018-06-25T00:39:24.757Z,13.11
2018-06-25T00:41:54.341Z,13.11
2018-06-25T00:44:23.910Z,13.14
2018-06-25T00:46:53.524Z,13.03
2018-06-25T00:49:23.148Z,13.00
2018-06-25T00:51:52.830Z,13.01
2018-06-25T00:54:22.370Z,13.13
2018-06-25T00:56:51.995Z,13.14
2018-06-25T00:59:38.314Z,13.13
2018-06-25T01:02:07.949Z,13.03
2018-06-25T01:04:37.543Z,12.89
2018-06-25T01:07:07.128Z,12.87
2018-06-25T01:09:36.708Z,12.88
2018-06-25T01:12:06.379Z,12.86
2018-06-25T01:14:36.061Z,12.90
2018-06-25T01:17:06.049Z,12.89
2018-06-25T01:19:35.657Z,12.86
2018-06-25T01:22:05.293Z,12.89
2018-06-25T01:24:34.928Z,12.87
2018-06-25T01:27:04.687Z,12.99
2018-06-25T01:29:34.256Z,13.06
2018-06-25T01:32:04.021Z,13.03
2018-06-25T01:34:33.730Z,13.04
2018-06-25T01:37:03.785Z,13.09
2018-06-25T01:39:33.843Z,13.07
2018-06-25T01:42:03.617Z,12.87
2018-06-25T01:44:33.275Z,12.92
2018-06-25T01:47:02.978Z,12.92
2018-06-25T01:49:32.698Z,12.94
2018-06-25T01:52:02.341Z,12.92
2018-06-25T01:54:31.986Z,12.97
2018-06-25T01:57:01.665Z,12.93
2018-06-25T01:59:31.285Z,12.93
2018-06-25T02:02:00.928Z,12.89
2018-06-25T02:04:30.568Z,12.92
2018-06-25T02:07:00.148Z,12.83
2018-06-25T02:09:29.757Z,12.90
2018-06-25T02:11:59.435Z,12.81
2018-06-25T02:14:29.081Z,12.82
2018-06-25T02:16:58.681Z,12.82
2018-06-25T02:19:29.319Z,12.86
2018-06-25T02:21:58.945Z,12.78
2018-06-25T02:24:28.655Z,12.83
2018-06-25T02:26:58.387Z,12.83
2018-06-25T02:29:28.020Z,12.87
2018-06-25T02:31:57.775Z,12.82
2018-06-25T02:34:27.354Z,12.82
2018-06-25T02:36:57.077Z,12.84
2018-06-25T02:39:26.734Z,12.77
2018-06-25T02:41:56.400Z,12.89
2018-06-25T02:44:26.112Z,12.87
2018-06-25T02:46:55.680Z,12.90
2018-06-25T02:49:25.280Z,12.82
2018-06-25T02:51:54.825Z,12.88
2018-06-25T02:54:24.474Z,12.93
2018-06-25T02:56:54.104Z,12.94
2018-06-25T02:59:24.323Z,12.97
2018-06-25T03:01:53.924Z,12.97
2018-06-25T03:04:23.961Z,13.00
2018-06-25T03:06:53.512Z,13.03
2018-06-25T03:09:23.339Z,12.87
2018-06-25T03:11:52.598Z,12.91
2018-06-25T03:14:22.482Z,12.93
2018-06-25T03:16:52.072Z,12.90
2018-06-25T03:19:21.668Z,12.94
2018-06-25T03:21:51.368Z,12.89
2018-06-25T03:24:21.111Z,12.96
2018-06-25T03:26:50.656Z,12.94
2018-06-25T03:29:20.248Z,12.92
2018-06-25T03:31:50.002Z,12.99
2018-06-25T03:34:19.544Z,13.04
2018-06-25T03:36:49.117Z,12.98
2018-06-25T03:39:19.272Z,13.02
2018-06-25T03:41:48.853Z,13.05
2018-06-25T03:44:18.466Z,13.07
2018-06-25T03:46:48.045Z,13.06
2018-06-25T03:49:17.689Z,13.17
2018-06-25T03:51:47.296Z,13.13
2018-06-25T03:54:16.835Z,13.14
2018-06-25T03:56:46.466Z,13.20
2018-06-25T03:59:16.003Z,13.27
2018-06-25T04:01:45.592Z,13.13
2018-06-25T04:04:15.178Z,13.16
2018-06-25T04:06:44.785Z,13.07
2018-06-25T04:09:14.409Z,13.14
2018-06-25T04:11:44.134Z,13.24
2018-06-25T04:14:13.728Z,13.22
2018-06-25T04:16:43.276Z,13.26
2018-06-25T04:19:12.969Z,13.18
2018-06-25T04:21:42.617Z,13.29
2018-06-25T04:24:12.175Z,13.31
2018-06-25T04:26:41.741Z,13.29
2018-06-25T04:29:11.336Z,13.32
2018-06-25T04:31:40.967Z,13.28
2018-06-25T04:34:10.556Z,13.23
2018-06-25T04:36:40.174Z,13.19
2018-06-25T04:39:10.939Z,13.19
2018-06-25T04:41:40.609Z,13.20
2018-06-25T04:44:10.353Z,13.36
2018-06-25T04:46:39.923Z,13.30
2018-06-25T04:49:09.709Z,13.24
2018-06-25T04:51:39.378Z,13.30
2018-06-25T04:54:08.988Z,13.21
2018-06-25T04:56:38.679Z,13.32
2018-06-25T04:59:08.330Z,13.37
2018-06-25T05:01:37.944Z,13.49
2018-06-25T05:04:07.607Z,13.54
2018-06-25T05:06:37.241Z,13.61
2018-06-25T05:09:10.020Z,13.65
2018-06-25T05:11:39.969Z,13.83
2018-06-25T05:14:09.719Z,13.99
2018-06-25T05:16:39.335Z,14.25
2018-06-25T05:19:08.975Z,14.07
2018-06-25T05:21:38.552Z,14.13
2018-06-25T05:24:08.388Z,14.02
2018-06-25T05:26:38.072Z,14.06
2018-06-25T05:29:07.672Z,14.15
2018-06-25T05:31:37.354Z,14.06
2018-06-25T05:34:07.163Z,13.88
2018-06-25T05:36:37.328Z,13.95
2018-06-25T05:39:11.020Z,14.08
2018-06-25T05:41:41.482Z,14.12
2018-06-25T05:44:11.370Z,13.87
2018-06-25T05:46:40.992Z,14.07
2018-06-25T05:49:10.659Z,13.94
2018-06-25T05:51:40.254Z,14.01
2018-06-25T05:54:09.876Z,13.93
2018-06-25T05:56:39.637Z,14.28
2018-06-25T05:59:09.581Z,14.43
2018-06-25T06:01:39.249Z,14.41
2018-06-25T06:04:08.952Z,14.47
2018-06-25T06:06:38.894Z,14.60
2018-06-25T06:09:10.150Z,14.58
2018-06-25T06:11:40.194Z,14.64
2018-06-25T06:14:09.849Z,14.72
2018-06-25T06:16:39.852Z,14.60
2018-06-25T06:19:09.391Z,14.45
2018-06-25T06:21:39.755Z,14.53
2018-06-25T06:24:09.493Z,14.26
2018-06-25T06:26:39.577Z,14.31
2018-06-25T06:29:09.964Z,14.35
2018-06-25T06:31:39.999Z,14.31
2018-06-25T06:34:09.745Z,14.34
2018-06-25T06:36:39.957Z,14.25
2018-06-25T06:39:13.464Z,14.35
2018-06-25T06:41:43.587Z,14.49
2018-06-25T06:44:13.234Z,14.47
2018-06-25T06:46:43.157Z,14.57
2018-06-25T06:49:12.823Z,14.49
2018-06-25T06:51:42.405Z,14.28
2018-06-25T06:54:12.015Z,14.50
2018-06-25T06:56:42.033Z,14.32
2018-06-25T06:59:11.765Z,14.34
2018-06-25T07:01:41.828Z,14.69
2018-06-25T07:04:11.466Z,14.51
2018-06-25T07:06:41.535Z,14.39
2018-06-25T07:09:13.105Z,14.59
2018-06-25T07:11:43.590Z,14.52
2018-06-25T07:14:13.294Z,14.53
2018-06-25T07:16:43.449Z,14.78
2018-06-25T07:19:13.117Z,14.69
2018-06-25T07:21:43.436Z,14.63
2018-06-25T07:24:13.101Z,14.57
2018-06-25T07:26:43.139Z,14.70
2018-06-25T07:29:12.711Z,14.93
2018-06-25T07:31:42.864Z,14.84
2018-06-25T07:34:12.463Z,14.69
2018-06-25T07:36:42.224Z,14.51
2018-06-25T07:39:11.906Z,14.70
2018-06-25T07:41:41.552Z,14.73
2018-06-25T07:44:11.233Z,14.73
2018-06-25T07:46:41.006Z,14.77
2018-06-25T07:49:10.676Z,14.70
2018-06-25T07:51:40.311Z,14.74
2018-06-25T07:54:09.960Z,14.94
2018-06-25T07:56:39.547Z,15.27
2018-06-25T07:59:09.193Z,15.84
2018-06-25T08:01:38.764Z,15.91
2018-06-25T08:04:13.052Z,15.56
2018-06-25T08:06:42.903Z,15.66
2018-06-25T08:09:13.283Z,16.42
2018-06-25T08:11:42.960Z,18.32
2018-06-25T08:14:12.713Z,19.26
2018-06-25T08:16:42.382Z,19.23
2018-06-25T08:19:12.027Z,18.37
2018-06-25T08:21:41.679Z,18.19
2018-06-25T08:24:11.413Z,17.58
2018-06-25T08:26:41.080Z,17.74
2018-06-25T08:29:10.784Z,17.60
2018-06-25T08:31:40.472Z,17.01
2018-06-25T08:34:10.212Z,17.16
2018-06-25T08:36:39.493Z,17.07
2018-06-25T08:39:12.012Z,16.91
2018-06-25T08:41:42.213Z,17.46
2018-06-25T08:44:11.822Z,18.18
2018-06-25T08:46:41.658Z,18.62
2018-06-25T08:49:11.345Z,17.87
2018-06-25T08:51:41.200Z,17.38
2018-06-25T08:54:10.725Z,17.29
2018-06-25T08:56:40.443Z,18.85
2018-06-25T08:59:10.177Z,18.54
2018-06-25T09:01:39.822Z,18.09
2018-06-25T09:04:09.443Z,19.28
2018-06-25T09:06:39.088Z,17.95
2018-06-25T09:09:11.692Z,18.69
2018-06-25T09:11:41.446Z,18.05
2018-06-25T09:14:11.182Z,18.59
2018-06-25T09:16:40.910Z,18.05
2018-06-25T09:19:10.593Z,17.75
2018-06-25T09:21:40.396Z,17.63
2018-06-25T09:24:10.133Z,16.82
2018-06-25T09:26:40.664Z,17.20
2018-06-25T09:29:11.672Z,17.05
2018-06-25T09:31:41.329Z,17.38
2018-06-25T09:34:16.261Z,18.28
2018-06-25T09:36:45.922Z,17.64
2018-06-25T09:39:16.489Z,17.98
2018-06-25T09:41:46.348Z,18.46
2018-06-25T09:44:15.862Z,19.15
2018-06-25T09:46:45.489Z,18.88
2018-06-25T09:49:15.148Z,18.88
2018-06-25T09:51:44.794Z,19.35
2018-06-25T09:54:14.446Z,20.27
2018-06-25T09:56:44.099Z,19.81
2018-06-25T09:59:13.749Z,19.67
2018-06-25T10:01:43.348Z,19.84
2018-06-25T10:04:13.000Z,19.48
2018-06-25T10:06:43.252Z,19.23
2018-06-25T10:09:13.337Z,18.75
2018-06-25T10:11:42.977Z,18.90
2018-06-25T10:14:12.534Z,18.56
2018-06-25T10:16:42.754Z,18.93
2018-06-25T10:19:12.508Z,18.78
2018-06-25T10:21:42.225Z,19.03
2018-06-25T10:24:11.989Z,19.53
2018-06-25T10:26:41.715Z,18.84
2018-06-25T10:29:11.391Z,19.33
2018-06-25T10:31:41.059Z,19.13
2018-06-25T10:34:10.860Z,18.80
2018-06-25T10:36:40.561Z,19.17
2018-06-25T10:39:11.275Z,19.36
2018-06-25T10:41:40.880Z,19.74
2018-06-25T10:44:10.757Z,19.78
2018-06-25T10:46:40.311Z,20.04
2018-06-25T10:49:10.045Z,19.41
2018-06-25T10:51:39.673Z,19.61
2018-06-25T10:54:09.429Z,19.88
2018-06-25T10:56:39.054Z,19.47
2018-06-25T10:59:08.790Z,20.25
2018-06-25T11:01:38.457Z,19.42
2018-06-25T11:04:08.252Z,19.33
2018-06-25T11:06:37.935Z,20.02
2018-06-25T11:09:10.845Z,19.30
2018-06-25T11:11:40.600Z,19.48
2018-06-25T11:14:10.435Z,19.13
2018-06-25T11:16:40.009Z,19.15
2018-06-25T11:19:09.912Z,19.00
2018-06-25T11:21:39.592Z,19.03
2018-06-25T11:24:09.317Z,18.99
2018-06-25T11:26:39.174Z,18.74
2018-06-25T11:29:08.517Z,18.63
2018-06-25T11:31:38.144Z,18.08
2018-06-25T11:34:07.759Z,17.87
2018-06-25T11:36:37.419Z,17.62
2018-06-25T11:39:10.871Z,17.76
2018-06-25T11:41:40.704Z,17.76
2018-06-25T11:44:10.421Z,17.67
2018-06-25T11:46:40.096Z,17.82
2018-06-25T11:49:09.808Z,17.92
2018-06-25T11:51:39.499Z,17.88
2018-06-25T11:54:09.343Z,17.84
2018-06-25T11:56:38.940Z,17.72
2018-06-25T11:59:08.563Z,17.69
2018-06-25T12:01:38.330Z,17.85
2018-06-25T12:04:08.320Z,18.05
2018-06-25T12:06:38.354Z,18.26
2018-06-25T12:09:10.367Z,18.77
2018-06-25T12:11:40.129Z,19.02
2018-06-25T12:14:09.845Z,19.89
2018-06-25T12:16:39.455Z,19.58
2018-06-25T12:19:09.343Z,19.44
2018-06-25T12:21:38.997Z,19.05
2018-06-25T12:24:08.985Z,18.95
2018-06-25T12:26:38.679Z,18.87
2018-06-25T12:29:08.567Z,19.16
2018-06-25T12:31:38.220Z,19.46
2018-06-25T12:34:08.284Z,19.21
2018-06-25T12:36:38.169Z,19.66
2018-06-25T12:39:10.753Z,19.48
2018-06-25T12:41:40.392Z,19.72
2018-06-25T12:44:10.649Z,19.57
2018-06-25T12:46:40.257Z,19.44
2018-06-25T12:49:10.591Z,19.37
2018-06-25T12:51:40.251Z,19.51
2018-06-25T12:54:10.538Z,19.57
2018-06-25T12:56:40.197Z,20.23
2018-06-25T12:59:10.218Z,19.67
2018-06-25T13:01:39.946Z,19.80
2018-06-25T13:04:09.893Z,19.88
2018-06-25T13:06:39.639Z,21.05
2018-06-25T13:09:11.679Z,19.69
2018-06-25T13:11:41.382Z,19.95
2018-06-25T13:14:14.375Z,19.75
2018-06-25T13:16:44.057Z,19.55
2018-06-25T13:19:13.772Z,19.55
2018-06-25T13:21:43.396Z,20.01
2018-06-25T13:24:13.374Z,20.03
2018-06-25T13:26:42.999Z,20.05
2018-06-25T13:29:12.945Z,20.34
2018-06-25T13:31:42.765Z,20.54
2018-06-25T13:34:12.849Z,20.13
2018-06-25T13:36:42.569Z,20.32
2018-06-25T13:39:12.297Z,20.82
2018-06-25T13:41:42.675Z,19.99
2018-06-25T13:44:12.660Z,20.38
2018-06-25T13:46:43.426Z,20.26
2018-06-25T13:49:13.509Z,20.21
2018-06-25T13:51:43.192Z,20.54
2018-06-25T13:54:14.075Z,19.92
2018-06-25T13:56:43.687Z,20.90
2018-06-25T13:59:13.598Z,20.38
2018-06-25T14:01:43.464Z,20.24
2018-06-25T14:04:13.394Z,20.62
2018-06-25T14:06:43.767Z,20.59
2018-06-25T14:09:13.502Z,20.30
2018-06-25T14:11:43.163Z,20.40
2018-06-25T14:14:12.872Z,20.20
2018-06-25T14:16:42.853Z,20.08
2018-06-25T14:19:12.405Z,20.28
2018-06-25T14:21:42.236Z,20.44
2018-06-25T14:24:17.026Z,20.72
2018-06-25T14:26:46.818Z,20.50
2018-06-25T14:29:21.952Z,20.59
2018-06-25T14:31:55.742Z,20.43
2018-06-25T14:34:25.536Z,20.73
2018-06-25T14:36:55.181Z,20.85
2018-06-25T14:39:24.892Z,20.67
2018-06-25T14:41:54.924Z,20.42
2018-06-25T14:44:24.510Z,20.44
2018-06-25T14:46:54.262Z,20.49
2018-06-25T14:49:23.965Z,20.65
2018-06-25T14:51:53.606Z,20.85
2018-06-25T14:54:23.315Z,21.40
2018-06-25T14:56:52.973Z,20.64
2018-06-25T14:59:22.629Z,20.43
2018-06-25T15:01:52.247Z,20.62
2018-06-25T15:04:22.088Z,20.36
2018-06-25T15:06:51.696Z,21.10
2018-06-25T15:09:22.140Z,21.07
2018-06-25T15:11:51.689Z,20.94
2018-06-25T15:14:21.811Z,21.15
2018-06-25T15:16:51.465Z,20.97
2018-06-25T15:19:21.537Z,21.07
2018-06-25T15:21:51.260Z,21.30
2018-06-25T15:24:20.705Z,21.48
2018-06-25T15:26:50.447Z,21.22
2018-06-25T15:29:20.149Z,21.56
2018-06-25T15:31:50.002Z,21.08
2018-06-25T15:34:19.633Z,21.19
2018-06-25T15:36:49.263Z,20.74
2018-06-25T15:39:18.971Z,21.08
2018-06-25T15:41:48.626Z,20.99
2018-06-25T15:44:18.272Z,20.73
2018-06-25T15:46:48.006Z,20.88
2018-06-25T15:49:17.753Z,21.20
2018-06-25T15:51:47.481Z,21.37
2018-06-25T15:54:17.143Z,21.06
2018-06-25T15:56:46.901Z,21.02
2018-06-25T15:59:16.457Z,20.96
2018-06-25T16:01:46.258Z,21.32
2018-06-25T16:04:16.051Z,21.61
2018-06-25T16:06:46.155Z,21.58
2018-06-25T16:09:15.859Z,21.44
2018-06-25T16:11:45.374Z,21.44
2018-06-25T16:14:15.070Z,20.93
2018-06-25T16:16:44.840Z,20.97
2018-06-25T16:19:14.497Z,20.77
2018-06-25T16:21:44.189Z,20.65
2018-06-25T16:24:13.989Z,20.83
2018-06-25T16:26:43.659Z,20.85
2018-06-25T16:29:13.398Z,20.58
2018-06-25T16:31:43.038Z,20.81
2018-06-25T16:34:12.773Z,20.73
2018-06-25T16:36:42.447Z,20.72
2018-06-25T16:39:13.377Z,20.87
2018-06-25T16:41:43.134Z,20.67
2018-06-25T16:44:12.854Z,20.61
2018-06-25T16:46:42.523Z,20.37
2018-06-25T16:49:13.667Z,20.55
2018-06-25T16:51:43.249Z,20.81
2018-06-25T16:54:12.950Z,20.70
2018-06-25T16:56:43.360Z,20.74
2018-06-25T16:59:13.095Z,20.59
2018-06-25T17:01:42.896Z,20.58
2018-06-25T17:04:12.676Z,20.63
2018-06-25T17:06:42.394Z,20.59
2018-06-25T17:09:13.369Z,20.60
2018-06-25T17:11:43.762Z,20.53
2018-06-25T17:14:13.344Z,20.36
2018-06-25T17:16:43.017Z,20.33
2018-06-25T17:19:12.732Z,20.23
2018-06-25T17:21:42.335Z,20.19
2018-06-25T17:24:11.963Z,20.14
2018-06-25T17:26:41.657Z,20.38
2018-06-25T17:29:11.294Z,20.51
2018-06-25T17:31:40.945Z,20.24
2018-06-25T17:34:10.619Z,20.24
2018-06-25T17:36:40.326Z,20.24
2018-06-25T17:39:10.182Z,20.31
2018-06-25T17:41:39.942Z,19.97
2018-06-25T17:44:09.749Z,20.01
2018-06-25T17:46:39.385Z,19.94
2018-06-25T17:49:09.082Z,19.94
2018-06-25T17:51:38.718Z,19.84
2018-06-25T17:54:08.587Z,19.70
2018-06-25T17:56:38.339Z,19.76
2018-06-25T17:59:08.073Z,19.72
2018-06-25T18:01:37.714Z,19.77
2018-06-25T18:04:07.334Z,19.61
2018-06-25T18:06:36.980Z,19.70
2018-06-25T18:09:10.200Z,19.62
2018-06-25T18:11:39.847Z,19.69
2018-06-25T18:14:09.739Z,19.50
2018-06-25T18:16:40.180Z,19.60
2018-06-25T18:19:10.196Z,19.52
2018-06-25T18:21:39.936Z,19.63
2018-06-25T18:24:09.807Z,19.63
2018-06-25T18:26:39.536Z,19.53
2018-06-25T18:29:09.235Z,19.55
2018-06-25T18:31:39.278Z,19.61
2018-06-25T18:34:09.227Z,19.59
2018-06-25T18:36:39.127Z,19.33
2018-06-25T18:39:11.871Z,19.27
2018-06-25T18:41:41.986Z,19.21
2018-06-25T18:44:12.023Z,19.14
2018-06-25T18:46:41.699Z,19.15
2018-06-25T18:49:11.468Z,19.05
2018-06-25T18:51:40.788Z,19.08
2018-06-25T18:54:10.494Z,19.00
2018-06-25T18:56:40.765Z,19.05
2018-06-25T18:59:10.567Z,18.96
2018-06-25T19:01:40.563Z,18.95
2018-06-25T19:04:10.411Z,18.93
2018-06-25T19:06:41.616Z,18.89
2018-06-25T19:09:12.389Z,18.86
2018-06-25T19:11:42.026Z,18.75
2018-06-25T19:14:11.734Z,18.72
2018-06-25T19:16:41.706Z,18.67
2018-06-25T19:19:11.449Z,18.59
2018-06-25T19:21:41.501Z,18.55
2018-06-25T19:24:11.130Z,18.48
2018-06-25T19:26:41.213Z,18.42
2018-06-25T19:29:10.987Z,18.36
2018-06-25T19:31:41.205Z,18.26
2018-06-25T19:34:11.027Z,18.26
2018-06-25T19:36:41.207Z,18.16
2018-06-25T19:39:13.469Z,18.09
2018-06-25T19:41:43.758Z,18.02
2018-06-25T19:44:13.426Z,17.93
2018-06-25T19:46:43.459Z,17.86
2018-06-25T19:49:13.149Z,17.66
2018-06-25T19:51:43.439Z,17.64
2018-06-25T19:54:13.816Z,17.51
2018-06-25T19:56:44.801Z,17.45
2018-06-25T19:59:15.016Z,17.34
2018-06-25T20:01:45.242Z,17.31
2018-06-25T20:04:17.118Z,17.13
2018-06-25T20:06:46.654Z,17.03
2018-06-25T20:09:16.457Z,16.89
2018-06-25T20:11:46.259Z,16.83
2018-06-25T20:14:16.346Z,16.79
2018-06-25T20:16:46.437Z,16.84
2018-06-25T20:19:16.253Z,16.74
2018-06-25T20:21:46.074Z,16.61
2018-06-25T20:24:16.625Z,16.68
2018-06-25T20:26:46.510Z,16.47
2018-06-25T20:29:16.575Z,16.48
2018-06-25T20:31:46.624Z,16.39
2018-06-25T20:34:16.382Z,16.35
2018-06-25T20:36:46.500Z,16.27
2018-06-25T20:39:17.123Z,16.25
2018-06-25T20:41:47.045Z,16.20
2018-06-25T20:44:16.755Z,16.11
2018-06-25T20:46:46.760Z,16.07
2018-06-25T20:49:16.360Z,15.93
2018-06-25T20:51:47.304Z,15.90
2018-06-25T20:54:16.974Z,15.89
2018-06-25T20:56:46.970Z,15.79
2018-06-25T20:59:16.449Z,15.71
2018-06-25T21:01:46.165Z,15.59
2018-06-25T21:04:16.364Z,15.56
2018-06-25T21:06:46.363Z,15.47
2018-06-25T21:09:16.349Z,15.40
2018-06-25T21:11:46.501Z,15.22
2018-06-25T21:14:16.193Z,15.12
2018-06-25T21:16:47.629Z,15.04
2018-06-25T21:19:18.374Z,15.01
2018-06-25T21:21:49.049Z,14.97
2018-06-25T21:24:18.756Z,14.86
2018-06-25T21:26:48.892Z,14.79
2018-06-25T21:29:19.110Z,14.79
2018-06-25T21:31:49.197Z,14.70
2018-06-25T21:34:19.561Z,14.62
2018-06-25T21:36:49.396Z,14.55
2018-06-25T21:39:19.348Z,14.54
2018-06-25T21:41:49.410Z,14.50
2018-06-25T21:44:19.140Z,14.49
2018-06-25T21:46:49.045Z,14.40
2018-06-25T21:49:18.741Z,14.28
2018-06-25T21:51:48.615Z,14.22
2018-06-25T21:54:18.332Z,14.15
2018-06-25T21:56:48.043Z,14.14
2018-06-25T21:59:17.772Z,14.06
2018-06-25T22:01:55.948Z,14.06
2018-06-25T22:04:27.592Z,14.13
2018-06-25T22:06:57.664Z,13.96
2018-06-25T22:09:27.362Z,13.96
2018-06-25T22:11:57.074Z,13.89
2018-06-25T22:14:26.771Z,13.87
2018-06-25T22:16:56.411Z,13.82
2018-06-25T22:19:26.108Z,13.78
2018-06-25T22:21:56.113Z,13.77
2018-06-25T22:24:25.898Z,13.70
2018-06-25T22:26:56.010Z,13.67
2018-06-25T22:29:25.657Z,13.83
2018-06-25T22:31:55.654Z,13.86
2018-06-25T22:34:25.438Z,13.85
2018-06-25T22:36:55.333Z,13.58
2018-06-25T22:39:24.923Z,13.64
2018-06-25T22:41:54.803Z,13.73
2018-06-25T22:44:24.547Z,13.78
2018-06-25T22:46:54.678Z,13.74
2018-06-25T22:49:24.435Z,13.71
2018-06-25T22:51:54.446Z,13.75
2018-06-25T22:54:24.208Z,13.79
2018-06-25T22:56:53.854Z,13.86
2018-06-25T22:59:23.692Z,13.86
2018-06-25T23:01:53.642Z,13.69
2018-06-25T23:04:23.376Z,13.63
2018-06-25T23:06:53.263Z,13.76
2018-06-25T23:09:22.888Z,13.72
2018-06-25T23:11:53.160Z,13.70
2018-06-25T23:14:23.319Z,13.61
2018-06-25T23:16:53.034Z,13.58
2018-06-25T23:19:22.674Z,13.54
2018-06-25T23:21:52.364Z,13.61
2018-06-25T23:24:22.028Z,13.65
2018-06-25T23:26:51.824Z,13.66
2018-06-25T23:29:24.308Z,13.65
2018-06-25T23:31:53.961Z,13.66
2018-06-25T23:34:23.944Z,13.61
2018-06-25T23:36:53.574Z,13.60
2018-06-25T23:39:23.269Z,13.68
2018-06-25T23:41:53.047Z,13.75
2018-06-25T23:44:22.712Z,13.61
2018-06-25T23:46:58.851Z,13.73
2018-06-25T23:49:28.507Z,13.49
2018-06-25T23:51:58.095Z,13.47
2018-06-25T23:54:28.175Z,13.44
2018-06-25T23:56:57.868Z,13.34
2018-06-25T23:59:27.469Z,13.32
